Metar Cercanos

 

LEPA - Palma De Mallorc, Spain
Distance from station: ONO 38km
Actualización: 21/08/2018 03:30
Despejado
Despejado
 Viento del calm
Viento: Calma
Temperatura: 21°C
Rocío: 18°C
Humedad: 83%
Barómetro: 1016 hPa
Resumen: Despejado
Visibility: greater than 10 km
2018/08/21 01:30 LEPA 210130Z 00000KT CAVOK 21/18 Q1016 NOSIG
LEMH - Mahon/Menorca Is, Spain
Distance from station: ENE 105km
Actualización: 21/08/2018 03:30
Despejado
Despejado
 Viento del N
Viento: N 15 km/h
Temperatura: 24°C
Rocío: 20°C
Humedad: 78%
Barómetro: 1015 hPa
Clouds: Despejado
Visibility: 10 km
2018/08/21 01:30 LEMH 210130Z AUTO 36008KT 9999 NCD 24/20 Q1015
 
LEIB - Ibiza/Es Codola, Spain
Distance from station: OSO 165km
Actualización: 21/08/2018 03:30
Despejado
Despejado
 Viento del calm
Viento: Calma
Temperatura: 22°C
Rocío: 20°C
Humedad: 88%
Barómetro: 1016 hPa
Resumen: Despejado
Visibility: greater than 10 km
2018/08/21 01:30 LEIB 210130Z 00000KT CAVOK 22/20 Q1016 NOSIG
LEBL - Barcelona Airpor, Spain
Distance from station: NNO 225km
Actualización: 21/08/2018 03:30
Despejado
Despejado
 Viento del NO
Viento: NO 15 km/h
Temperatura: 24°C
Rocío: 20°C
Humedad: 78%
Barómetro: 1016 hPa
Resumen: Despejado
Visibility: greater than 10 km
2018/08/21 01:30 LEBL 210130Z 31008KT CAVOK 24/20 Q1016 NOSIG
 
LEVC - Valencia (civ/Mi, Spain
Distance from station: NO 188km
Actualización: 21/08/2018 03:30
Despejado
Despejado
 Viento del ONO
Viento: ONO 7 km/h
Temperatura: 23°C
Rocío: 16°C
Humedad: 65%
Barómetro: 1016 hPa
Resumen: Despejado
Visibility: greater than 10 km
2018/08/21 01:30 LEVC 210130Z 29004KT CAVOK 23/16 Q1016 NOSIG
LEGE - Gerona/Costa Bra, Spain
Distance from station: N 276km
Actualización: 21/08/2018 03:30
Despejado
Despejado
 Viento del NE
Viento: NE 6 km/h
Temperatura: 18°C
Rocío: 17°C
Humedad: 94%
Barómetro: 1017 hPa
Resumen: Despejado
Visibility: greater than 10 km
2018/08/21 01:30 LEGE 210130Z 04003KT CAVOK 18/17 Q1017
 
LEAL - Alicante/El Alte, Spain
Distance from station: OSO 344km
Actualización: 21/08/2018 03:30
Despejado
Despejado
 Viento del ONO
Viento: ONO 7 km/h
Temperatura: 23°C
Rocío: 15°C
Humedad: 61%
Barómetro: 1017 hPa
Resumen: Despejado
Visibility: greater than 10 km
2018/08/21 01:30 LEAL 210130Z 30004KT CAVOK 23/15 Q1017 NOSIG
LEAM - Almeria Airport, Spain
Distance from station: SSO 56km
Actualización: 21/08/2018 03:30
Despejado
Despejado
 Viento del NNO
Viento: NNO 11 km/h
Temperatura: 25°C
Rocío: 19°C
Humedad: 69%
Barómetro: 1016 hPa
Clouds: Despejado
Visibility: 10 km
2018/08/21 01:30 LEAM 210130Z AUTO 33006KT 310V010 9999 NCD 25/19 Q1016
 
LEZG - Zaragoza (mil/Ci, Spain
Distance from station: NO 431km
Actualización: 21/08/2018 03:30
Despejado
Despejado
 Viento del O
Viento: O 17 km/h
Temperatura: 21°C
Rocío: 15°C
Humedad: 69%
Barómetro: 1018 hPa
Resumen: Despejado
Visibility: greater than 10 km
2018/08/21 01:30 LEZG 210130Z 28009KT CAVOK 21/15 Q1018
LEMD - Madrid/Barajas, Spain
Distance from station: ONO 234km
Actualización: 21/08/2018 03:30
Despejado
Despejado
 Viento del N
Viento: N 6 km/h
Temperatura: 22°C
Rocío: 9°C
Humedad: 44%
Barómetro: 1018 hPa
Resumen: Despejado
Visibility: greater than 10 km
2018/08/21 01:30 LEMD 210130Z 36003KT CAVOK 22/09 Q1018 NOSIG
 
LEGR - Granada Airport, Spain
Distance from station: OSO 62km
Actualización: 21/08/2018 03:30
Despejado
Despejado
 Viento del calm
Viento: Calma
Temperatura: 22°C
Rocío: 16°C
Humedad: 69%
Barómetro: 1019 hPa
Clouds: Despejado
Visibility: 10 km
2018/08/21 01:30 LEGR 210130Z AUTO 00000KT 9999 NCD 22/16 Q1019
LEMG - Malaga (civ/Mil), Spain
Distance from station: OSO 227km
Actualización: 21/08/2018 03:30
Parcialmente nuboso
Parcialmente nuboso
 Viento del ESE
Viento: ESE 6 km/h
Temperatura: 25°C
Rocío: 21°C
Humedad: 79%
Barómetro: 1017 hPa
Clouds: Parcialmente nuboso
Visibility: 10 km
Cloud details: Few Clouds 549 m
Parcialmente nuboso 762 m
2018/08/21 01:30 LEMG 210130Z 12003KT 100V160 9999 FEW018 SCT025 25/21 Q1017 NOSIG
 
LEZL - Sevilla (civ/Mil, Spain
Distance from station: S 318km
Actualización: 21/08/2018 03:30
Despejado
Despejado
 Viento del NNO
Viento: NNO 6 km/h
Temperatura: 26°C
Rocío: 16°C
Humedad: 54%
Barómetro: 1015 hPa
Resumen: Despejado
Visibility: greater than 10 km
2018/08/21 01:30 LEZL 210130Z 33003KT 290V350 CAVOK 26/16 Q1015 NOSIG
LEVT - Vitoria, Spain
Distance from station: NO 226km
Actualización: 21/08/2018 03:30
Despejado
Despejado
 Viento del varies
Viento: varies 2 km/h
Temperatura: 12°C
Rocío: 12°C
Humedad: 100%
Barómetro: 1021 hPa
Resumen: Despejado
Visibility: greater than 10 km
2018/08/21 01:30 LEVT 210130Z VRB01KT CAVOK 12/12 Q1021
 
LEBB - Bilbao/Sondica, Spain
Distance from station: NNO 235km
Actualización: 21/08/2018 03:30
Despejado
Despejado
 Viento del varies
Viento: varies 4 km/h
Temperatura: 17°C
Rocío: 16°C
Humedad: 94%
Barómetro: 1021 hPa
Clouds: Despejado
Visibility: 10 km
2018/08/21 01:30 LEBB 210130Z AUTO VRB02KT 9999 NCD 17/16 Q1021
LESO - San Sebastian/Fu, Spain
Distance from station: N 231km
Actualización: 21/08/2018 03:30
Muy nuboso
Muy nuboso
 Viento del S
Viento: S 7 km/h
Temperatura: 19°C
Rocío: 17°C
Humedad: 88%
Barómetro: 1020 hPa
Clouds: Muy nuboso
Visibility: 10 km
Cloud details: Parcialmente nuboso 549 m
Muy nuboso 762 m
2018/08/21 01:30 LESO 210130Z AUTO 18004KT 150V210 9999 SCT018/// BKN025/// 19/17 Q1020
 
LEVD - Valladolid(Mil/C, Spain
Distance from station: ONO 239km
Actualización: 20/08/2018 21:30
NOT Current
Despejado
Despejado
 Viento del NE
Viento: NE 15 km/h
Temperatura: 23°C
Rocío: 7°C
Humedad: 36%
Barómetro: 1020 hPa
Resumen: Despejado
Visibility: greater than 10 km
2018/08/20 19:30 LEVD 201930Z 05008KT CAVOK 23/07 Q1020
LESA - Salamanca (civ/M, Spain
Distance from station: ONO 349km
Actualización: 21/08/2018 03:30
Despejado
Despejado
 Viento del N
Viento: N 2 km/h
Temperatura: 15°C
Rocío: 12°C
Humedad: 82%
Barómetro: 1020 hPa
Clouds: Despejado
Visibility: 10 km
2018/08/21 01:30 LESA 210130Z AUTO 36001KT 9999 NCD 15/12 Q1020
 
LEXJ - Santander/Paraya, Spain
Distance from station: NNO 247km
Actualización: 21/08/2018 03:30
Despejado
Despejado
 Viento del varies
Viento: varies 2 km/h
Temperatura: 17°C
Rocío: 17°C
Humedad: 100%
Barómetro: 1020 hPa
Clouds: Despejado
Visibility: 6 km
2018/08/21 01:30 LEXJ 210130Z AUTO VRB01KT 6000 NCD 17/17 Q1020
LEAS - Asturias/Aviles, Spain
Distance from station: NO 214km
Actualización: 21/08/2018 03:30
Mist, Parcialmente nuboso
Mist, Parcialmente nuboso
 Viento del SE
Viento: SE 7 km/h
Temperatura: 17°C
Rocío: 16°C
Humedad: 94%
Barómetro: 1020 hPa
Resumen: Mist
Clouds: Parcialmente nuboso
Visibility: 5 km
2018/08/21 01:30 LEAS 210130Z AUTO 14004KT 100V160 5000 BR NSC 17/16 Q1020
 
LECO - La Coruna/Alvedr, Spain
Distance from station: ONO 222km
Actualización: 21/08/2018 03:30
Despejado
Despejado
 Viento del varies
Viento: varies 2 km/h
Temperatura: 16°C
Rocío: 14°C
Humedad: 88%
Barómetro: 1017 hPa
Clouds: Despejado
Visibility: 10 km
2018/08/21 01:30 LECO 210130Z AUTO VRB01KT 9999 NCD 16/14 Q1017
LEVX - Vigo/Peinador, Spain
Distance from station: O 214km
Actualización: 21/08/2018 03:30
Despejado
Despejado
 Viento del OSO
Viento: OSO 11 km/h
Temperatura: 25°C
Rocío: 16°C
Humedad: 57%
Barómetro: 1016 hPa
Resumen: Despejado
Visibility: greater than 10 km
2018/08/21 01:30 LEVX 210130Z 24006KT 200V280 CAVOK 25/16 Q1016 NOSIG